sensor_id;sensor_type;location;lat;lon;timestamp;temperature;humidity
65985;HTU21D;52748;51.112;5.880;2023-08-06T00:00:40;23.87;66.75
65985;HTU21D;52748;51.112;5.880;2023-08-06T00:03:06;23.87;66.84
65985;HTU21D;52748;51.112;5.880;2023-08-06T00:05:32;23.85;66.95
65985;HTU21D;52748;51.112;5.880;2023-08-06T00:07:58;23.85;66.92
65985;HTU21D;52748;51.112;5.880;2023-08-06T00:10:23;23.89;66.75
65985;HTU21D;52748;51.112;5.880;2023-08-06T00:12:49;23.90;66.58
65985;HTU21D;52748;51.112;5.880;2023-08-06T00:15:15;23.88;66.59
65985;HTU21D;52748;51.112;5.880;2023-08-06T00:17:41;23.88;66.69
65985;HTU21D;52748;51.112;5.880;2023-08-06T00:20:07;23.88;66.74
65985;HTU21D;52748;51.112;5.880;2023-08-06T00:22:34;23.87;66.71
65985;HTU21D;52748;51.112;5.880;2023-08-06T00:25:01;23.86;66.78
65985;HTU21D;52748;51.112;5.880;2023-08-06T00:27:27;23.86;66.76
65985;HTU21D;52748;51.112;5.880;2023-08-06T00:29:53;23.88;66.72
65985;HTU21D;52748;51.112;5.880;2023-08-06T00:32:19;23.89;66.53
65985;HTU21D;52748;51.112;5.880;2023-08-06T00:34:45;23.87;66.69
65985;HTU21D;52748;51.112;5.880;2023-08-06T00:37:11;23.89;66.56
65985;HTU21D;52748;51.112;5.880;2023-08-06T00:39:38;23.90;66.43
65985;HTU21D;52748;51.112;5.880;2023-08-06T00:42:04;23.89;66.40
65985;HTU21D;52748;51.112;5.880;2023-08-06T00:44:30;23.88;66.53
65985;HTU21D;52748;51.112;5.880;2023-08-06T00:46:56;23.90;66.46
65985;HTU21D;52748;51.112;5.880;2023-08-06T00:49:22;23.88;66.58
65985;HTU21D;52748;51.112;5.880;2023-08-06T00:51:49;23.87;66.68
65985;HTU21D;52748;51.112;5.880;2023-08-06T00:54:16;23.84;66.75
65985;HTU21D;52748;51.112;5.880;2023-08-06T00:56:42;23.83;66.83
65985;HTU21D;52748;51.112;5.880;2023-08-06T00:59:10;23.83;66.91
65985;HTU21D;52748;51.112;5.880;2023-08-06T01:01:37;23.83;66.91
65985;HTU21D;52748;51.112;5.880;2023-08-06T01:04:03;23.83;66.91
65985;HTU21D;52748;51.112;5.880;2023-08-06T01:06:41;23.84;66.85
65985;HTU21D;52748;51.112;5.880;2023-08-06T01:09:31;23.85;66.77
65985;HTU21D;52748;51.112;5.880;2023-08-06T01:12:23;23.87;66.63
65985;HTU21D;52748;51.112;5.880;2023-08-06T01:17:18;23.84;66.75
65985;HTU21D;52748;51.112;5.880;2023-08-06T01:19:44;23.83;66.80
65985;HTU21D;52748;51.112;5.880;2023-08-06T01:22:09;23.82;66.91
65985;HTU21D;52748;51.112;5.880;2023-08-06T01:24:35;23.82;66.94
65985;HTU21D;52748;51.112;5.880;2023-08-06T01:27:18;23.81;66.98
65985;HTU21D;52748;51.112;5.880;2023-08-06T01:30:00;23.81;66.98
65985;HTU21D;52748;51.112;5.880;2023-08-06T01:32:32;23.80;66.95
65985;HTU21D;52748;51.112;5.880;2023-08-06T01:35:00;23.82;67.01
65985;HTU21D;52748;51.112;5.880;2023-08-06T01:37:29;23.81;67.01
65985;HTU21D;52748;51.112;5.880;2023-08-06T01:39:56;23.81;67.01
65985;HTU21D;52748;51.112;5.880;2023-08-06T01:42:21;23.83;66.88
65985;HTU21D;52748;51.112;5.880;2023-08-06T01:44:47;23.81;66.88
65985;HTU21D;52748;51.112;5.880;2023-08-06T01:47:13;23.82;66.93
65985;HTU21D;52748;51.112;5.880;2023-08-06T01:49:39;23.83;66.86
65985;HTU21D;52748;51.112;5.880;2023-08-06T01:52:05;23.82;66.85
65985;HTU21D;52748;51.112;5.880;2023-08-06T01:54:32;23.84;66.74
65985;HTU21D;52748;51.112;5.880;2023-08-06T01:56:58;23.81;66.87
65985;HTU21D;52748;51.112;5.880;2023-08-06T01:59:24;23.80;66.94
65985;HTU21D;52748;51.112;5.880;2023-08-06T02:01:50;23.80;66.92
65985;HTU21D;52748;51.112;5.880;2023-08-06T02:04:15;23.81;66.91
65985;HTU21D;52748;51.112;5.880;2023-08-06T02:06:41;23.83;66.69
65985;HTU21D;52748;51.112;5.880;2023-08-06T02:09:07;23.85;66.56
65985;HTU21D;52748;51.112;5.880;2023-08-06T02:11:33;23.87;66.47
65985;HTU21D;52748;51.112;5.880;2023-08-06T02:13:59;23.85;66.42
65985;HTU21D;52748;51.112;5.880;2023-08-06T02:16:25;23.85;66.53
65985;HTU21D;52748;51.112;5.880;2023-08-06T02:18:51;23.84;66.55
65985;HTU21D;52748;51.112;5.880;2023-08-06T02:21:24;23.85;66.56
65985;HTU21D;52748;51.112;5.880;2023-08-06T02:23:50;23.85;66.43
65985;HTU21D;52748;51.112;5.880;2023-08-06T02:26:16;23.86;66.37
65985;HTU21D;52748;51.112;5.880;2023-08-06T02:28:42;23.86;66.27
65985;HTU21D;52748;51.112;5.880;2023-08-06T02:31:07;23.84;66.46
65985;HTU21D;52748;51.112;5.880;2023-08-06T02:33:35;23.82;66.62
65985;HTU21D;52748;51.112;5.880;2023-08-06T02:36:02;23.81;66.79
65985;HTU21D;52748;51.112;5.880;2023-08-06T02:38:29;23.79;66.89
65985;HTU21D;52748;51.112;5.880;2023-08-06T02:40:56;23.79;66.84
65985;HTU21D;52748;51.112;5.880;2023-08-06T02:43:23;23.82;66.66
65985;HTU21D;52748;51.112;5.880;2023-08-06T02:45:49;23.82;66.61
65985;HTU21D;52748;51.112;5.880;2023-08-06T02:48:15;23.85;66.54
65985;HTU21D;52748;51.112;5.880;2023-08-06T02:50:41;23.85;66.47
65985;HTU21D;52748;51.112;5.880;2023-08-06T02:53:08;23.82;66.61
65985;HTU21D;52748;51.112;5.880;2023-08-06T02:55:35;23.82;66.74
65985;HTU21D;52748;51.112;5.880;2023-08-06T02:58:06;23.83;66.65
65985;HTU21D;52748;51.112;5.880;2023-08-06T03:00:35;23.82;66.40
65985;HTU21D;52748;51.112;5.880;2023-08-06T03:03:03;23.80;66.62
65985;HTU21D;52748;51.112;5.880;2023-08-06T03:05:52;23.80;66.80
65985;HTU21D;52748;51.112;5.880;2023-08-06T03:08:22;23.79;67.00
65985;HTU21D;52748;51.112;5.880;2023-08-06T03:10:50;23.77;66.98
65985;HTU21D;52748;51.112;5.880;2023-08-06T03:13:18;23.76;67.11
65985;HTU21D;52748;51.112;5.880;2023-08-06T03:15:58;23.77;67.10
65985;HTU21D;52748;51.112;5.880;2023-08-06T03:18:26;23.74;67.14
65985;HTU21D;52748;51.112;5.880;2023-08-06T03:20:52;23.75;67.19
65985;HTU21D;52748;51.112;5.880;2023-08-06T03:23:18;23.74;67.09
65985;HTU21D;52748;51.112;5.880;2023-08-06T03:25:45;23.73;67.14
65985;HTU21D;52748;51.112;5.880;2023-08-06T03:28:12;23.73;67.20
65985;HTU21D;52748;51.112;5.880;2023-08-06T03:30:39;23.74;67.04
65985;HTU21D;52748;51.112;5.880;2023-08-06T03:33:06;23.74;67.23
65985;HTU21D;52748;51.112;5.880;2023-08-06T03:35:32;23.77;67.01
65985;HTU21D;52748;51.112;5.880;2023-08-06T03:37:59;23.79;66.86
65985;HTU21D;52748;51.112;5.880;2023-08-06T03:40:25;23.77;66.85
65985;HTU21D;52748;51.112;5.880;2023-08-06T03:42:50;23.75;66.91
65985;HTU21D;52748;51.112;5.880;2023-08-06T03:45:17;23.75;67.01
65985;HTU21D;52748;51.112;5.880;2023-08-06T03:47:43;23.74;67.08
65985;HTU21D;52748;51.112;5.880;2023-08-06T03:50:09;23.73;67.07
65985;HTU21D;52748;51.112;5.880;2023-08-06T03:52:35;23.72;67.14
65985;HTU21D;52748;51.112;5.880;2023-08-06T03:55:01;23.74;67.19
65985;HTU21D;52748;51.112;5.880;2023-08-06T03:57:27;23.73;67.26
65985;HTU21D;52748;51.112;5.880;2023-08-06T03:59:53;23.73;67.23
65985;HTU21D;52748;51.112;5.880;2023-08-06T04:02:19;23.73;67.26
65985;HTU21D;52748;51.112;5.880;2023-08-06T04:04:44;23.73;67.24
65985;HTU21D;52748;51.112;5.880;2023-08-06T04:07:10;23.72;67.31
65985;HTU21D;52748;51.112;5.880;2023-08-06T04:09:54;23.73;67.39
65985;HTU21D;52748;51.112;5.880;2023-08-06T04:12:20;23.72;67.47
65985;HTU21D;52748;51.112;5.880;2023-08-06T04:14:46;23.73;67.59
65985;HTU21D;52748;51.112;5.880;2023-08-06T04:17:12;23.72;67.63
65985;HTU21D;52748;51.112;5.880;2023-08-06T04:19:38;23.76;67.64
65985;HTU21D;52748;51.112;5.880;2023-08-06T04:22:03;23.76;67.46
65985;HTU21D;52748;51.112;5.880;2023-08-06T04:24:29;23.75;67.38
65985;HTU21D;52748;51.112;5.880;2023-08-06T04:26:55;23.77;67.38
65985;HTU21D;52748;51.112;5.880;2023-08-06T04:29:21;23.75;67.40
65985;HTU21D;52748;51.112;5.880;2023-08-06T04:31:47;23.74;67.55
65985;HTU21D;52748;51.112;5.880;2023-08-06T04:34:14;23.75;67.59
65985;HTU21D;52748;51.112;5.880;2023-08-06T04:36:39;23.76;67.33
65985;HTU21D;52748;51.112;5.880;2023-08-06T04:39:07;23.77;67.23
65985;HTU21D;52748;51.112;5.880;2023-08-06T04:41:34;23.75;67.36
65985;HTU21D;52748;51.112;5.880;2023-08-06T04:43:59;23.73;67.51
65985;HTU21D;52748;51.112;5.880;2023-08-06T04:46:26;23.73;67.59
65985;HTU21D;52748;51.112;5.880;2023-08-06T04:48:51;23.72;67.64
65985;HTU21D;52748;51.112;5.880;2023-08-06T04:51:17;23.71;67.68
65985;HTU21D;52748;51.112;5.880;2023-08-06T04:53:43;23.70;67.75
65985;HTU21D;52748;51.112;5.880;2023-08-06T04:56:09;23.72;67.78
65985;HTU21D;52748;51.112;5.880;2023-08-06T04:58:35;23.72;67.59
65985;HTU21D;52748;51.112;5.880;2023-08-06T05:01:00;23.72;67.75
65985;HTU21D;52748;51.112;5.880;2023-08-06T05:03:26;23.74;67.63
65985;HTU21D;52748;51.112;5.880;2023-08-06T05:05:52;23.75;67.55
65985;HTU21D;52748;51.112;5.880;2023-08-06T05:08:18;23.76;67.45
65985;HTU21D;52748;51.112;5.880;2023-08-06T05:10:45;23.75;67.62
65985;HTU21D;52748;51.112;5.880;2023-08-06T05:13:11;23.76;67.53
65985;HTU21D;52748;51.112;5.880;2023-08-06T05:15:37;23.75;67.43
65985;HTU21D;52748;51.112;5.880;2023-08-06T05:18:03;23.75;67.63
65985;HTU21D;52748;51.112;5.880;2023-08-06T05:20:29;23.75;67.52
65985;HTU21D;52748;51.112;5.880;2023-08-06T05:22:54;23.77;67.46
65985;HTU21D;52748;51.112;5.880;2023-08-06T05:25:20;23.74;67.53
65985;HTU21D;52748;51.112;5.880;2023-08-06T05:27:46;23.75;67.62
65985;HTU21D;52748;51.112;5.880;2023-08-06T05:30:12;23.75;67.75
65985;HTU21D;52748;51.112;5.880;2023-08-06T05:32:37;23.75;67.69
65985;HTU21D;52748;51.112;5.880;2023-08-06T05:35:03;23.76;67.62
65985;HTU21D;52748;51.112;5.880;2023-08-06T05:37:29;23.75;67.62
65985;HTU21D;52748;51.112;5.880;2023-08-06T05:39:55;23.75;67.71
65985;HTU21D;52748;51.112;5.880;2023-08-06T05:42:21;23.73;67.86
65985;HTU21D;52748;51.112;5.880;2023-08-06T05:44:46;23.71;67.99
65985;HTU21D;52748;51.112;5.880;2023-08-06T05:47:12;23.71;68.10
65985;HTU21D;52748;51.112;5.880;2023-08-06T05:49:38;23.68;68.17
65985;HTU21D;52748;51.112;5.880;2023-08-06T05:52:04;23.68;68.23
65985;HTU21D;52748;51.112;5.880;2023-08-06T05:54:32;23.69;68.19
65985;HTU21D;52748;51.112;5.880;2023-08-06T05:56:57;23.70;68.07
65985;HTU21D;52748;51.112;5.880;2023-08-06T05:59:23;23.73;67.92
65985;HTU21D;52748;51.112;5.880;2023-08-06T06:01:49;23.73;67.76
65985;HTU21D;52748;51.112;5.880;2023-08-06T06:04:15;23.72;67.81
65985;HTU21D;52748;51.112;5.880;2023-08-06T06:06:40;23.71;68.02
65985;HTU21D;52748;51.112;5.880;2023-08-06T06:09:07;23.69;68.16
65985;HTU21D;52748;51.112;5.880;2023-08-06T06:11:33;23.67;68.29
65985;HTU21D;52748;51.112;5.880;2023-08-06T06:13:59;23.68;68.34
65985;HTU21D;52748;51.112;5.880;2023-08-06T06:16:25;23.68;68.35
65985;HTU21D;52748;51.112;5.880;2023-08-06T06:18:51;23.69;68.25
65985;HTU21D;52748;51.112;5.880;2023-08-06T06:21:17;23.70;68.14
65985;HTU21D;52748;51.112;5.880;2023-08-06T06:23:43;23.72;68.05
65985;HTU21D;52748;51.112;5.880;2023-08-06T06:26:09;23.73;67.95
65985;HTU21D;52748;51.112;5.880;2023-08-06T06:28:35;23.72;67.99
65985;HTU21D;52748;51.112;5.880;2023-08-06T06:31:01;23.72;68.04
65985;HTU21D;52748;51.112;5.880;2023-08-06T06:33:27;23.74;67.93
65985;HTU21D;52748;51.112;5.880;2023-08-06T06:35:53;23.73;67.91
65985;HTU21D;52748;51.112;5.880;2023-08-06T06:38:19;23.73;67.95
65985;HTU21D;52748;51.112;5.880;2023-08-06T06:40:53;23.71;67.98
65985;HTU21D;52748;51.112;5.880;2023-08-06T06:43:19;23.70;68.16
65985;HTU21D;52748;51.112;5.880;2023-08-06T06:45:45;23.69;68.18
65985;HTU21D;52748;51.112;5.880;2023-08-06T06:48:10;23.68;68.26
65985;HTU21D;52748;51.112;5.880;2023-08-06T06:50:36;23.66;68.39
65985;HTU21D;52748;51.112;5.880;2023-08-06T06:53:04;23.64;68.58
65985;HTU21D;52748;51.112;5.880;2023-08-06T06:55:30;23.65;68.46
65985;HTU21D;52748;51.112;5.880;2023-08-06T06:57:56;23.68;68.33
65985;HTU21D;52748;51.112;5.880;2023-08-06T07:00:22;23.68;68.41
65985;HTU21D;52748;51.112;5.880;2023-08-06T07:02:48;23.69;68.44
65985;HTU21D;52748;51.112;5.880;2023-08-06T07:05:13;23.70;68.23
65985;HTU21D;52748;51.112;5.880;2023-08-06T07:07:39;23.72;68.07
65985;HTU21D;52748;51.112;5.880;2023-08-06T07:10:05;23.71;68.17
65985;HTU21D;52748;51.112;5.880;2023-08-06T07:12:31;23.71;68.51
65985;HTU21D;52748;51.112;5.880;2023-08-06T07:14:57;23.67;68.84
65985;HTU21D;52748;51.112;5.880;2023-08-06T07:17:23;23.67;69.58
65985;HTU21D;52748;51.112;5.880;2023-08-06T07:19:49;23.60;71.13
65985;HTU21D;52748;51.112;5.880;2023-08-06T07:22:14;23.47;71.69
65985;HTU21D;52748;51.112;5.880;2023-08-06T07:24:40;23.34;72.55
65985;HTU21D;52748;51.112;5.880;2023-08-06T07:27:06;23.20;73.12
65985;HTU21D;52748;51.112;5.880;2023-08-06T07:29:32;23.12;74.02
65985;HTU21D;52748;51.112;5.880;2023-08-06T07:31:58;23.00;74.63
65985;HTU21D;52748;51.112;5.880;2023-08-06T07:34:23;22.90;75.15
65985;HTU21D;52748;51.112;5.880;2023-08-06T07:36:49;22.80;75.98
65985;HTU21D;52748;51.112;5.880;2023-08-06T07:39:15;22.75;77.26
65985;HTU21D;52748;51.112;5.880;2023-08-06T07:41:42;22.72;78.37
65985;HTU21D;52748;51.112;5.880;2023-08-06T07:44:08;22.75;78.88
65985;HTU21D;52748;51.112;5.880;2023-08-06T07:46:34;22.78;78.83
65985;HTU21D;52748;51.112;5.880;2023-08-06T07:48:59;22.80;78.95
65985;HTU21D;52748;51.112;5.880;2023-08-06T07:51:25;22.80;79.11
65985;HTU21D;52748;51.112;5.880;2023-08-06T07:53:51;22.84;77.79
65985;HTU21D;52748;51.112;5.880;2023-08-06T07:56:17;22.82;76.08
65985;HTU21D;52748;51.112;5.880;2023-08-06T07:58:43;22.79;74.83
65985;HTU21D;52748;51.112;5.880;2023-08-06T08:01:09;22.76;75.28
65985;HTU21D;52748;51.112;5.880;2023-08-06T08:03:35;22.78;75.05
65985;HTU21D;52748;51.112;5.880;2023-08-06T08:06:00;22.80;74.79
65985;HTU21D;52748;51.112;5.880;2023-08-06T08:08:26;22.85;74.33
65985;HTU21D;52748;51.112;5.880;2023-08-06T08:10:52;22.87;73.56
65985;HTU21D;52748;51.112;5.880;2023-08-06T08:13:18;22.87;73.31
65985;HTU21D;52748;51.112;5.880;2023-08-06T08:15:44;22.88;73.05
65985;HTU21D;52748;51.112;5.880;2023-08-06T08:18:09;22.87;73.09
65985;HTU21D;52748;51.112;5.880;2023-08-06T08:20:35;22.88;73.15
65985;HTU21D;52748;51.112;5.880;2023-08-06T08:23:02;22.87;73.42
65985;HTU21D;52748;51.112;5.880;2023-08-06T08:25:28;22.86;73.63
65985;HTU21D;52748;51.112;5.880;2023-08-06T08:27:55;22.90;73.22
65985;HTU21D;52748;51.112;5.880;2023-08-06T08:30:21;22.96;73.22
65985;HTU21D;52748;51.112;5.880;2023-08-06T08:32:47;23.01;72.71
65985;HTU21D;52748;51.112;5.880;2023-08-06T08:35:13;23.09;72.13
65985;HTU21D;52748;51.112;5.880;2023-08-06T08:37:42;23.14;72.07
65985;HTU21D;52748;51.112;5.880;2023-08-06T08:40:09;23.15;71.95
65985;HTU21D;52748;51.112;5.880;2023-08-06T08:42:36;23.18;71.89
65985;HTU21D;52748;51.112;5.880;2023-08-06T08:45:04;23.20;71.74
65985;HTU21D;52748;51.112;5.880;2023-08-06T08:47:31;23.25;71.52
65985;HTU21D;52748;51.112;5.880;2023-08-06T08:49:57;23.29;71.24
65985;HTU21D;52748;51.112;5.880;2023-08-06T08:52:25;23.32;70.79
65985;HTU21D;52748;51.112;5.880;2023-08-06T08:54:54;23.32;70.87
65985;HTU21D;52748;51.112;5.880;2023-08-06T08:57:20;23.32;70.62
65985;HTU21D;52748;51.112;5.880;2023-08-06T08:59:46;23.35;70.68
65985;HTU21D;52748;51.112;5.880;2023-08-06T09:02:15;23.35;70.61
65985;HTU21D;52748;51.112;5.880;2023-08-06T09:04:44;23.37;70.29
65985;HTU21D;52748;51.112;5.880;2023-08-06T09:07:16;23.37;70.42
65985;HTU21D;52748;51.112;5.880;2023-08-06T09:09:43;23.38;70.16
65985;HTU21D;52748;51.112;5.880;2023-08-06T09:12:15;23.41;69.94
65985;HTU21D;52748;51.112;5.880;2023-08-06T09:14:42;23.42;69.61
65985;HTU21D;52748;51.112;5.880;2023-08-06T09:17:09;23.43;69.44
65985;HTU21D;52748;51.112;5.880;2023-08-06T09:19:41;23.43;69.57
65985;HTU21D;52748;51.112;5.880;2023-08-06T09:22:11;23.45;69.16
65985;HTU21D;52748;51.112;5.880;2023-08-06T09:24:40;23.46;68.75
65985;HTU21D;52748;51.112;5.880;2023-08-06T09:27:11;23.47;68.64
65985;HTU21D;52748;51.112;5.880;2023-08-06T09:29:47;23.47;68.70
65985;HTU21D;52748;51.112;5.880;2023-08-06T09:32:13;23.49;68.93
65985;HTU21D;52748;51.112;5.880;2023-08-06T09:34:41;23.49;68.84
65985;HTU21D;52748;51.112;5.880;2023-08-06T09:37:09;23.50;68.44
65985;HTU21D;52748;51.112;5.880;2023-08-06T09:39:37;23.51;68.27
65985;HTU21D;52748;51.112;5.880;2023-08-06T09:42:03;23.56;67.88
65985;HTU21D;52748;51.112;5.880;2023-08-06T09:44:32;23.56;67.71
65985;HTU21D;52748;51.112;5.880;2023-08-06T09:47:00;23.58;67.62
65985;HTU21D;52748;51.112;5.880;2023-08-06T09:49:28;23.59;67.60
65985;HTU21D;52748;51.112;5.880;2023-08-06T09:52:13;23.59;67.60
65985;HTU21D;52748;51.112;5.880;2023-08-06T09:54:39;23.59;67.47
65985;HTU21D;52748;51.112;5.880;2023-08-06T09:57:06;23.59;67.52
65985;HTU21D;52748;51.112;5.880;2023-08-06T09:59:32;23.60;67.57
65985;HTU21D;52748;51.112;5.880;2023-08-06T10:01:59;23.59;67.57
65985;HTU21D;52748;51.112;5.880;2023-08-06T10:04:25;23.61;67.84
65985;HTU21D;52748;51.112;5.880;2023-08-06T10:06:52;23.64;67.96
65985;HTU21D;52748;51.112;5.880;2023-08-06T10:09:18;23.62;68.12
65985;HTU21D;52748;51.112;5.880;2023-08-06T10:11:50;23.66;67.94
65985;HTU21D;52748;51.112;5.880;2023-08-06T10:14:29;23.65;67.88
65985;HTU21D;52748;51.112;5.880;2023-08-06T10:16:57;23.64;67.84
65985;HTU21D;52748;51.112;5.880;2023-08-06T10:19:25;23.62;68.19
65985;HTU21D;52748;51.112;5.880;2023-08-06T10:22:12;23.61;69.22
65985;HTU21D;52748;51.112;5.880;2023-08-06T10:32:51;23.56;71.38
65985;HTU21D;52748;51.112;5.880;2023-08-06T10:35:48;23.59;71.88
65985;HTU21D;52748;51.112;5.880;2023-08-06T10:38:17;23.64;73.48
65985;HTU21D;52748;51.112;5.880;2023-08-06T10:43:32;23.61;72.45
65985;HTU21D;52748;51.112;5.880;2023-08-06T10:46:01;23.62;72.45
65985;HTU21D;52748;51.112;5.880;2023-08-06T10:48:37;23.65;72.58
65985;HTU21D;52748;51.112;5.880;2023-08-06T10:51:08;23.66;72.69
65985;HTU21D;52748;51.112;5.880;2023-08-06T10:53:34;23.64;72.77
65985;HTU21D;52748;51.112;5.880;2023-08-06T10:56:01;23.64;72.80
65985;HTU21D;52748;51.112;5.880;2023-08-06T10:58:34;23.62;72.74
65985;HTU21D;52748;51.112;5.880;2023-08-06T11:01:00;23.62;72.28
65985;HTU21D;52748;51.112;5.880;2023-08-06T11:03:27;23.61;72.06
65985;HTU21D;52748;51.112;5.880;2023-08-06T11:05:53;23.65;71.60
65985;HTU21D;52748;51.112;5.880;2023-08-06T11:08:29;23.66;71.26
65985;HTU21D;52748;51.112;5.880;2023-08-06T11:11:08;23.68;71.22
65985;HTU21D;52748;51.112;5.880;2023-08-06T11:13:34;23.69;71.13
65985;HTU21D;52748;51.112;5.880;2023-08-06T11:16:00;23.68;71.29
65985;HTU21D;52748;51.112;5.880;2023-08-06T11:18:26;23.69;71.51
65985;HTU21D;52748;51.112;5.880;2023-08-06T11:20:52;23.69;71.79
65985;HTU21D;52748;51.112;5.880;2023-08-06T11:23:18;23.71;72.07
65985;HTU21D;52748;51.112;5.880;2023-08-06T11:25:44;23.74;72.34
65985;HTU21D;52748;51.112;5.880;2023-08-06T11:28:11;23.77;72.65
65985;HTU21D;52748;51.112;5.880;2023-08-06T11:30:38;23.83;72.89
65985;HTU21D;52748;51.112;5.880;2023-08-06T11:33:07;23.90;72.90
65985;HTU21D;52748;51.112;5.880;2023-08-06T11:35:36;23.95;72.94
65985;HTU21D;52748;51.112;5.880;2023-08-06T11:38:03;24.00;73.14
65985;HTU21D;52748;51.112;5.880;2023-08-06T11:40:35;24.01;73.43
65985;HTU21D;52748;51.112;5.880;2023-08-06T11:43:01;24.04;73.74
65985;HTU21D;52748;51.112;5.880;2023-08-06T11:45:26;24.09;73.77
65985;HTU21D;52748;51.112;5.880;2023-08-06T11:47:53;24.10;73.94
65985;HTU21D;52748;51.112;5.880;2023-08-06T11:50:23;24.12;74.09
65985;HTU21D;52748;51.112;5.880;2023-08-06T11:52:53;24.20;74.02
65985;HTU21D;52748;51.112;5.880;2023-08-06T11:55:23;24.21;73.98
65985;HTU21D;52748;51.112;5.880;2023-08-06T11:57:49;24.21;73.31
65985;HTU21D;52748;51.112;5.880;2023-08-06T12:00:15;24.19;73.78
65985;HTU21D;52748;51.112;5.880;2023-08-06T12:02:46;24.20;74.06
65985;HTU21D;52748;51.112;5.880;2023-08-06T12:05:13;24.20;74.29
65985;HTU21D;52748;51.112;5.880;2023-08-06T12:07:45;24.21;74.63
65985;HTU21D;52748;51.112;5.880;2023-08-06T12:10:13;24.25;74.63
65985;HTU21D;52748;51.112;5.880;2023-08-06T12:12:39;24.27;74.55
65985;HTU21D;52748;51.112;5.880;2023-08-06T12:15:07;24.27;74.31
65985;HTU21D;52748;51.112;5.880;2023-08-06T12:17:33;24.28;74.26
65985;HTU21D;52748;51.112;5.880;2023-08-06T12:19:59;24.27;74.19
65985;HTU21D;52748;51.112;5.880;2023-08-06T12:22:25;24.27;74.13
65985;HTU21D;52748;51.112;5.880;2023-08-06T12:24:51;24.26;73.99
65985;HTU21D;52748;51.112;5.880;2023-08-06T12:27:17;24.25;73.96
65985;HTU21D;52748;51.112;5.880;2023-08-06T12:29:52;24.19;73.48
65985;HTU21D;52748;51.112;5.880;2023-08-06T12:32:18;24.13;74.02
65985;HTU21D;52748;51.112;5.880;2023-08-06T12:34:44;24.10;74.07
65985;HTU21D;52748;51.112;5.880;2023-08-06T12:37:10;24.09;73.96
65985;HTU21D;52748;51.112;5.880;2023-08-06T12:39:37;24.08;73.99
65985;HTU21D;52748;51.112;5.880;2023-08-06T12:42:05;24.04;73.90
65985;HTU21D;52748;51.112;5.880;2023-08-06T12:44:32;24.02;73.77
65985;HTU21D;52748;51.112;5.880;2023-08-06T12:46:58;24.02;73.28
65985;HTU21D;52748;51.112;5.880;2023-08-06T12:49:25;24.04;72.56
65985;HTU21D;52748;51.112;5.880;2023-08-06T12:51:53;24.05;71.99
65985;HTU21D;52748;51.112;5.880;2023-08-06T12:54:19;24.02;70.80
65985;HTU21D;52748;51.112;5.880;2023-08-06T12:56:46;23.96;70.01
65985;HTU21D;52748;51.112;5.880;2023-08-06T12:59:17;23.91;69.71
65985;HTU21D;52748;51.112;5.880;2023-08-06T13:01:43;23.89;70.35
65985;HTU21D;52748;51.112;5.880;2023-08-06T13:04:10;23.94;71.05
65985;HTU21D;52748;51.112;5.880;2023-08-06T13:06:39;24.00;71.55
65985;HTU21D;52748;51.112;5.880;2023-08-06T13:09:06;24.01;69.96
65985;HTU21D;52748;51.112;5.880;2023-08-06T13:11:35;24.00;69.37
65985;HTU21D;52748;51.112;5.880;2023-08-06T13:14:09;24.00;69.50
65985;HTU21D;52748;51.112;5.880;2023-08-06T13:16:37;24.03;69.45
65985;HTU21D;52748;51.112;5.880;2023-08-06T13:19:04;24.06;69.42
65985;HTU21D;52748;51.112;5.880;2023-08-06T13:21:35;24.11;69.10
65985;HTU21D;52748;51.112;5.880;2023-08-06T13:24:17;24.11;69.07
65985;HTU21D;52748;51.112;5.880;2023-08-06T13:26:43;24.10;69.16
65985;HTU21D;52748;51.112;5.880;2023-08-06T13:29:09;24.15;68.92
65985;HTU21D;52748;51.112;5.880;2023-08-06T13:31:37;24.18;68.68
65985;HTU21D;52748;51.112;5.880;2023-08-06T13:34:03;24.20;68.60
65985;HTU21D;52748;51.112;5.880;2023-08-06T13:36:29;24.21;68.68
65985;HTU21D;52748;51.112;5.880;2023-08-06T13:38:55;24.20;68.68
65985;HTU21D;52748;51.112;5.880;2023-08-06T13:41:21;24.19;68.71
65985;HTU21D;52748;51.112;5.880;2023-08-06T13:43:48;24.18;68.84
65985;HTU21D;52748;51.112;5.880;2023-08-06T13:46:14;24.18;69.06
65985;HTU21D;52748;51.112;5.880;2023-08-06T13:48:44;24.16;68.90
65985;HTU21D;52748;51.112;5.880;2023-08-06T13:51:11;24.17;68.89
65985;HTU21D;52748;51.112;5.880;2023-08-06T13:53:38;24.17;69.10
65985;HTU21D;52748;51.112;5.880;2023-08-06T13:56:05;24.18;69.40
65985;HTU21D;52748;51.112;5.880;2023-08-06T13:58:32;24.20;69.35
65985;HTU21D;52748;51.112;5.880;2023-08-06T14:00:58;24.21;69.45
65985;HTU21D;52748;51.112;5.880;2023-08-06T14:03:23;24.21;69.39
65985;HTU21D;52748;51.112;5.880;2023-08-06T14:05:49;24.23;69.35
65985;HTU21D;52748;51.112;5.880;2023-08-06T14:08:16;24.25;69.32
65985;HTU21D;52748;51.112;5.880;2023-08-06T14:10:44;24.27;68.97
65985;HTU21D;52748;51.112;5.880;2023-08-06T14:13:10;24.30;69.08
65985;HTU21D;52748;51.112;5.880;2023-08-06T14:15:36;24.29;69.39
65985;HTU21D;52748;51.112;5.880;2023-08-06T14:18:05;24.27;69.60
65985;HTU21D;52748;51.112;5.880;2023-08-06T14:20:30;24.29;70.00
65985;HTU21D;52748;51.112;5.880;2023-08-06T14:22:57;24.29;70.16
65985;HTU21D;52748;51.112;5.880;2023-08-06T14:25:23;24.30;70.38
65985;HTU21D;52748;51.112;5.880;2023-08-06T14:27:48;24.32;70.26
65985;HTU21D;52748;51.112;5.880;2023-08-06T14:30:14;24.31;70.35
65985;HTU21D;52748;51.112;5.880;2023-08-06T14:32:40;24.31;70.42
65985;HTU21D;52748;51.112;5.880;2023-08-06T14:35:06;24.29;70.90
65985;HTU21D;52748;51.112;5.880;2023-08-06T14:37:32;24.33;70.50
65985;HTU21D;52748;51.112;5.880;2023-08-06T14:39:58;24.33;70.13
65985;HTU21D;52748;51.112;5.880;2023-08-06T14:42:24;24.33;70.22
65985;HTU21D;52748;51.112;5.880;2023-08-06T14:44:49;24.32;70.33
65985;HTU21D;52748;51.112;5.880;2023-08-06T14:47:15;24.32;70.36
65985;HTU21D;52748;51.112;5.880;2023-08-06T14:49:41;24.32;69.94
65985;HTU21D;52748;51.112;5.880;2023-08-06T14:52:07;24.31;69.93
65985;HTU21D;52748;51.112;5.880;2023-08-06T14:54:33;24.33;70.16
65985;HTU21D;52748;51.112;5.880;2023-08-06T14:56:59;24.35;70.08
65985;HTU21D;52748;51.112;5.880;2023-08-06T14:59:24;24.36;70.26
65985;HTU21D;52748;51.112;5.880;2023-08-06T15:01:50;24.38;70.26
65985;HTU21D;52748;51.112;5.880;2023-08-06T15:04:17;24.42;70.23
65985;HTU21D;52748;51.112;5.880;2023-08-06T15:06:44;24.42;69.87
65985;HTU21D;52748;51.112;5.880;2023-08-06T15:09:10;24.46;69.65
65985;HTU21D;52748;51.112;5.880;2023-08-06T15:11:36;24.50;69.25
65985;HTU21D;52748;51.112;5.880;2023-08-06T15:14:01;24.53;68.84
65985;HTU21D;52748;51.112;5.880;2023-08-06T15:16:30;24.51;67.70
65985;HTU21D;52748;51.112;5.880;2023-08-06T15:18:56;24.49;67.19
65985;HTU21D;52748;51.112;5.880;2023-08-06T15:21:22;24.48;67.41
65985;HTU21D;52748;51.112;5.880;2023-08-06T15:23:48;24.46;67.55
65985;HTU21D;52748;51.112;5.880;2023-08-06T15:26:13;24.49;67.60
65985;HTU21D;52748;51.112;5.880;2023-08-06T15:28:39;24.47;67.52